Time;durP1;ratioP1;P1;durP2;ratioP2;P2;SDS_P1;SDS_P2;PMS_P1;PMS_P2;Temp;Humidity;BMP_temperature;BMP_pressure;BME280_temperature;BME280_humidity;BME280_pressure;Samples;Min_cycle;Max_cycle;Signal;HPM_P1;HPM_P2
2022/04/15 00:01:17;;;;;;;16.33;7.53;;;;;;;;;;5048364;28;20065;-81
2022/04/15 00:03:43;;;;;;;15.30;7.00;;;;;;;;;;5049384;28;20041;-80
2022/04/15 00:06:10;;;;;;;16.27;7.80;;;;;;;;;;5056053;28;20041;-81
2022/04/15 00:08:36;;;;;;;14.45;7.63;;;;;;;;;;5047115;28;20053;-81
2022/04/15 00:11:02;;;;;;;12.27;7.88;;;;;;;;;;5046900;28;20073;-81
2022/04/15 00:13:29;;;;;;;12.77;7.28;;;;;;;;;;5049615;28;20069;-82
2022/04/15 00:15:59;;;;;;;15.57;7.40;;;;;;;;;;5065758;28;20041;-81
2022/04/15 00:18:26;;;;;;;14.57;8.05;;;;;;;;;;5050682;28;20043;-80
2022/04/15 00:20:52;;;;;;;13.32;7.90;;;;;;;;;;5038469;28;20120;-81
2022/04/15 00:23:20;;;;;;;16.23;7.97;;;;;;;;;;5022499;28;20037;-81
2022/04/15 00:25:46;;;;;;;16.70;8.27;;;;;;;;;;5038443;28;20049;-82
2022/04/15 00:28:12;;;;;;;14.73;7.70;;;;;;;;;;5038481;28;20061;-81
2022/04/15 00:30:38;;;;;;;16.38;8.43;;;;;;;;;;5035894;28;20206;-81
2022/04/15 00:33:04;;;;;;;17.58;8.57;;;;;;;;;;5040018;28;20045;-81
2022/04/15 00:35:30;;;;;;;16.02;7.65;;;;;;;;;;5022307;28;20045;-81
2022/04/15 00:37:56;;;;;;;13.82;8.32;;;;;;;;;;5035958;28;20147;-81
2022/04/15 00:40:22;;;;;;;13.18;8.02;;;;;;;;;;5053732;28;20037;-81
2022/04/15 00:42:48;;;;;;;14.07;7.60;;;;;;;;;;5043010;28;20049;-81
2022/04/15 00:45:14;;;;;;;15.85;8.10;;;;;;;;;;5051645;28;20517;-82
2022/04/15 00:47:53;;;;;;;12.13;7.88;;;;;;;;;;5047249;28;20053;-82
2022/04/15 00:50:23;;;;;;;17.35;7.90;;;;;;;;;;5030327;28;20042;-82
2022/04/15 00:52:50;;;;;;;13.35;8.13;;;;;;;;;;5032060;28;20049;-81
2022/04/15 00:55:17;;;;;;;13.48;7.57;;;;;;;;;;5032165;28;20048;-81
2022/04/15 00:57:44;;;;;;;13.35;7.53;;;;;;;;;;5035394;28;20071;-82
2022/04/15 01:00:12;;;;;;;14.32;8.05;;;;;;;;;;5054877;28;20049;-80
2022/04/15 01:02:40;;;;;;;17.50;8.45;;;;;;;;;;5034207;28;20041;-81
2022/04/15 01:05:08;;;;;;;14.45;7.80;;;;;;;;;;5024718;28;20128;-81
2022/04/15 01:07:41;;;;;;;14.35;8.30;;;;;;;;;;5033409;28;20183;-81
2022/04/15 01:10:11;;;;;;;12.88;7.80;;;;;;;;;;5048681;28;20403;-81
2022/04/15 01:12:38;;;;;;;12.90;7.72;;;;;;;;;;5035204;28;20045;-81
2022/04/15 01:15:06;;;;;;;13.10;8.05;;;;;;;;;;5031163;28;20045;-82
2022/04/15 01:17:34;;;;;;;19.77;8.23;;;;;;;;;;5047217;28;20036;-81
2022/04/15 01:20:01;;;;;;;17.02;8.48;;;;;;;;;;5033400;28;20048;-81
2022/04/15 01:22:36;;;;;;;15.77;8.07;;;;;;;;;;5051829;28;20042;-81
2022/04/15 01:25:03;;;;;;;16.38;9.13;;;;;;;;;;5049332;28;20658;-81
2022/04/15 01:27:34;;;;;;;16.80;8.43;;;;;;;;;;5019237;28;20044;-81
2022/04/15 01:30:00;;;;;;;18.02;8.30;;;;;;;;;;5035222;28;20052;-81
2022/04/15 01:32:26;;;;;;;15.57;8.07;;;;;;;;;;5034416;28;20049;-81
2022/04/15 01:34:53;;;;;;;16.60;8.50;;;;;;;;;;5051691;28;20045;-81
2022/04/15 01:37:20;;;;;;;15.90;7.97;;;;;;;;;;5034537;28;20051;-80
2022/04/15 01:39:50;;;;;;;14.57;9.23;;;;;;;;;;5035010;28;20041;-80
2022/04/15 01:42:17;;;;;;;14.27;8.63;;;;;;;;;;5016117;28;20567;-82
2022/04/15 01:44:43;;;;;;;17.50;8.68;;;;;;;;;;5030996;28;20038;-81
2022/04/15 01:47:10;;;;;;;14.43;8.98;;;;;;;;;;5049752;28;20084;-81
2022/04/15 01:49:36;;;;;;;13.93;7.60;;;;;;;;;;5046658;28;20049;-81
2022/04/15 01:52:02;;;;;;;14.38;8.38;;;;;;;;;;5048802;28;20037;-82
2022/04/15 01:54:29;;;;;;;15.57;8.55;;;;;;;;;;5014561;28;20058;-80
2022/04/15 01:56:55;;;;;;;13.35;8.52;;;;;;;;;;5037603;28;20033;-80
2022/04/15 01:59:21;;;;;;;17.85;8.52;;;;;;;;;;5041659;28;20045;-81
2022/04/15 02:01:48;;;;;;;18.75;8.88;;;;;;;;;;5052364;28;20047;-80
2022/04/15 02:04:16;;;;;;;15.02;8.82;;;;;;;;;;5049921;28;20049;-81
2022/04/15 02:06:42;;;;;;;16.35;8.52;;;;;;;;;;5032617;28;20116;-82
2022/04/15 02:09:08;;;;;;;14.43;8.77;;;;;;;;;;5048399;28;20038;-81
2022/04/15 02:11:35;;;;;;;15.93;8.43;;;;;;;;;;5034039;28;20041;-81
2022/04/15 02:14:01;;;;;;;18.50;9.05;;;;;;;;;;5053913;28;20037;-82
2022/04/15 02:16:27;;;;;;;18.10;8.90;;;;;;;;;;5046810;28;20034;-80
2022/04/15 02:18:53;;;;;;;19.90;8.77;;;;;;;;;;5026877;28;20057;-81
2022/04/15 02:21:18;;;;;;;13.10;8.65;;;;;;;;;;5049352;28;20067;-81
2022/04/15 02:23:45;;;;;;;16.08;9.13;;;;;;;;;;5048025;28;20046;-81
2022/04/15 02:26:10;;;;;;;18.23;8.88;;;;;;;;;;5031415;28;20112;-79
2022/04/15 02:28:36;;;;;;;21.42;9.15;;;;;;;;;;5050103;28;20066;-80
2022/04/15 02:31:03;;;;;;;17.33;8.57;;;;;;;;;;5041985;28;20052;-81
2022/04/15 02:33:29;;;;;;;15.25;8.85;;;;;;;;;;5051903;28;20051;-80
2022/04/15 02:35:55;;;;;;;16.95;8.93;;;;;;;;;;5049686;28;20040;-80
2022/04/15 02:38:21;;;;;;;11.90;8.82;;;;;;;;;;5051959;28;20098;-81
2022/04/15 02:40:47;;;;;;;15.43;8.80;;;;;;;;;;5055258;28;20131;-81
2022/04/15 02:43:14;;;;;;;17.35;8.77;;;;;;;;;;5050938;28;20038;-81
2022/04/15 02:45:40;;;;;;;16.05;9.40;;;;;;;;;;5049324;28;20046;-80
2022/04/15 02:48:06;;;;;;;16.50;9.20;;;;;;;;;;5048952;28;20038;-81
2022/04/15 02:50:32;;;;;;;19.55;9.15;;;;;;;;;;5033750;28;20051;-80
2022/04/15 02:52:59;;;;;;;17.40;8.57;;;;;;;;;;5052051;28;20040;-80
2022/04/15 02:55:26;;;;;;;14.07;8.23;;;;;;;;;;5046469;28;20092;-81
2022/04/15 02:57:52;;;;;;;14.13;8.38;;;;;;;;;;5050647;28;20037;-81
2022/04/15 03:00:18;;;;;;;15.07;8.77;;;;;;;;;;5054908;28;20052;-81
2022/04/15 03:02:44;;;;;;;15.07;7.45;;;;;;;;;;5053221;28;20044;-81
2022/04/15 03:05:10;;;;;;;13.82;7.65;;;;;;;;;;5052253;28;20037;-81
2022/04/15 03:07:37;;;;;;;15.43;8.10;;;;;;;;;;5051486;28;20046;-82
2022/04/15 03:10:03;;;;;;;14.30;7.53;;;;;;;;;;5055962;28;20050;-81
2022/04/15 03:12:33;;;;;;;12.23;7.47;;;;;;;;;;5033551;28;20044;-81
2022/04/15 03:14:59;;;;;;;14.15;7.65;;;;;;;;;;5047367;28;20045;-81
2022/04/15 03:17:25;;;;;;;17.40;8.38;;;;;;;;;;5035462;28;20060;-81
2022/04/15 03:19:51;;;;;;;14.88;8.57;;;;;;;;;;5062767;28;20048;-80
2022/04/15 03:22:17;;;;;;;14.65;8.13;;;;;;;;;;5023700;28;20041;-81
2022/04/15 03:24:44;;;;;;;12.80;7.30;;;;;;;;;;5050441;28;20095;-81
2022/04/15 03:27:10;;;;;;;12.50;7.57;;;;;;;;;;5047093;28;20041;-81
2022/04/15 03:29:36;;;;;;;12.52;7.65;;;;;;;;;;5052734;28;20064;-80
2022/04/15 03:32:03;;;;;;;14.57;7.30;;;;;;;;;;5048147;28;20061;-81
2022/04/15 03:34:29;;;;;;;12.45;7.18;;;;;;;;;;5034431;28;20491;-81
2022/04/15 03:36:57;;;;;;;11.55;6.78;;;;;;;;;;5050828;28;20021;-81
2022/04/15 03:39:23;;;;;;;11.57;6.60;;;;;;;;;;5047271;28;20044;-79
2022/04/15 03:41:49;;;;;;;11.30;6.25;;;;;;;;;;5025245;28;20046;-80
2022/04/15 03:44:16;;;;;;;13.52;6.88;;;;;;;;;;5045393;28;20042;-81
2022/04/15 03:46:42;;;;;;;12.43;7.00;;;;;;;;;;5032009;28;20049;-81
2022/04/15 03:49:08;;;;;;;15.15;7.63;;;;;;;;;;5051173;28;20040;-82
2022/04/15 03:51:34;;;;;;;13.60;7.78;;;;;;;;;;5030351;28;20449;-81
2022/04/15 03:54:00;;;;;;;14.07;7.15;;;;;;;;;;5048306;28;20479;-80
2022/04/15 03:56:26;;;;;;;12.18;7.13;;;;;;;;;;5046023;28;20052;-80
2022/04/15 03:58:52;;;;;;;12.10;7.05;;;;;;;;;;5050277;28;20068;-81
2022/04/15 04:01:18;;;;;;;11.90;6.78;;;;;;;;;;5050951;28;20041;-80
2022/04/15 04:03:45;;;;;;;13.32;7.53;;;;;;;;;;5032790;28;20113;-80
2022/04/15 04:06:11;;;;;;;16.52;7.40;;;;;;;;;;5032371;28;20052;-81
2022/04/15 04:08:37;;;;;;;16.52;7.65;;;;;;;;;;5048758;28;20041;-81
2022/04/15 04:11:03;;;;;;;14.40;7.65;;;;;;;;;;5051148;28;20056;-82
2022/04/15 04:13:29;;;;;;;14.38;10.10;;;;;;;;;;5034996;28;20411;-82
2022/04/15 04:15:55;;;;;;;15.70;11.35;;;;;;;;;;5043443;28;20042;-82
2022/04/15 04:18:21;;;;;;;17.45;12.40;;;;;;;;;;5031472;28;20037;-82
2022/04/15 04:20:50;;;;;;;17.38;12.52;;;;;;;;;;5020226;28;20072;-80
2022/04/15 04:23:16;;;;;;;20.27;12.88;;;;;;;;;;5017771;28;20063;-80
2022/04/15 04:25:42;;;;;;;17.08;13.63;;;;;;;;;;5045354;28;20497;-81
2022/04/15 04:28:08;;;;;;;21.40;13.63;;;;;;;;;;5040617;28;20053;-81
2022/04/15 04:30:34;;;;;;;16.63;13.43;;;;;;;;;;5041618;28;20041;-81
2022/04/15 04:33:00;;;;;;;17.05;13.25;;;;;;;;;;5048045;28;20057;-81
2022/04/15 04:35:26;;;;;;;17.85;12.90;;;;;;;;;;5042246;28;20069;-80
2022/04/15 04:37:53;;;;;;;16.02;12.95;;;;;;;;;;5055876;28;20067;-80
2022/04/15 04:40:19;;;;;;;14.85;12.02;;;;;;;;;;5044129;28;20103;-79
2022/04/15 04:42:45;;;;;;;14.90;11.20;;;;;;;;;;5048046;28;20037;-81
2022/04/15 04:45:11;;;;;;;17.25;11.57;;;;;;;;;;5051479;28;20123;-80
2022/04/15 04:47:42;;;;;;;14.30;11.18;;;;;;;;;;5033256;28;20044;-81
2022/04/15 04:50:09;;;;;;;13.32;10.25;;;;;;;;;;5010931;28;20100;-82
2022/04/15 04:52:35;;;;;;;13.23;9.50;;;;;;;;;;5043456;28;20050;-80
2022/04/15 04:55:02;;;;;;;13.00;9.00;;;;;;;;;;5042658;28;20046;-81
2022/04/15 04:57:28;;;;;;;13.57;9.35;;;;;;;;;;5027120;28;20042;-81
2022/04/15 04:59:56;;;;;;;11.40;9.43;;;;;;;;;;5050596;28;20044;-80
2022/04/15 05:02:22;;;;;;;13.45;9.07;;;;;;;;;;5050386;28;20041;-80
2022/04/15 05:04:48;;;;;;;11.48;9.10;;;;;;;;;;5016174;28;20040;-79
2022/04/15 05:07:14;;;;;;;10.70;9.25;;;;;;;;;;5043826;28;20048;-80
2022/04/15 05:09:42;;;;;;;14.15;9.57;;;;;;;;;;5055072;28;20068;-81
2022/04/15 05:12:12;;;;;;;12.60;9.07;;;;;;;;;;5051904;28;20045;-81
2022/04/15 05:14:39;;;;;;;14.80;8.73;;;;;;;;;;5069780;28;20068;-81
2022/04/15 05:17:05;;;;;;;11.38;8.93;;;;;;;;;;5050116;28;20045;-81
2022/04/15 05:19:32;;;;;;;11.10;8.52;;;;;;;;;;5066417;28;20045;-80
2022/04/15 05:22:01;;;;;;;14.05;8.25;;;;;;;;;;5033991;28;20049;-81
2022/04/15 05:24:27;;;;;;;9.20;7.80;;;;;;;;;;5019309;28;20048;-80
2022/04/15 05:26:53;;;;;;;9.80;6.82;;;;;;;;;;5022253;28;20045;-80
2022/04/15 05:29:19;;;;;;;15.80;7.57;;;;;;;;;;5061887;28;20411;-81
2022/04/15 05:31:45;;;;;;;9.43;6.85;;;;;;;;;;5063995;28;20057;-81
2022/04/15 05:34:11;;;;;;;9.45;6.68;;;;;;;;;;5041739;28;20024;-81
2022/04/15 05:36:37;;;;;;;10.57;6.65;;;;;;;;;;5029315;28;20157;-80
2022/04/15 05:39:03;;;;;;;7.03;5.93;;;;;;;;;;5033380;28;20049;-81
2022/04/15 05:41:29;;;;;;;9.50;6.57;;;;;;;;;;5032445;28;20056;-81
2022/04/15 05:43:57;;;;;;;10.35;7.35;;;;;;;;;;5018059;28;20057;-81
2022/04/15 05:46:23;;;;;;;8.88;6.90;;;;;;;;;;5031001;28;20052;-80
2022/04/15 05:48:49;;;;;;;10.77;7.07;;;;;;;;;;5037392;28;20080;-80
2022/04/15 05:51:15;;;;;;;8.82;6.53;;;;;;;;;;5046846;28;20506;-80
2022/04/15 05:53:41;;;;;;;11.63;7.15;;;;;;;;;;5045151;28;20038;-81
2022/04/15 05:56:07;;;;;;;10.65;7.63;;;;;;;;;;5027052;28;20072;-81
2022/04/15 05:58:33;;;;;;;13.48;8.07;;;;;;;;;;5045039;28;20041;-81
2022/04/15 06:00:59;;;;;;;13.43;8.30;;;;;;;;;;5029099;28;20037;-80
2022/04/15 06:03:25;;;;;;;12.43;8.57;;;;;;;;;;5038021;28;20060;-81
2022/04/15 06:05:51;;;;;;;10.82;8.60;;;;;;;;;;5010452;28;20128;-81
2022/04/15 06:08:18;;;;;;;11.80;8.65;;;;;;;;;;5044842;28;20103;-80
2022/04/15 06:10:44;;;;;;;10.23;8.15;;;;;;;;;;5028860;28;20098;-81
2022/04/15 06:13:13;;;;;;;10.13;8.48;;;;;;;;;;5027760;28;20053;-81
2022/04/15 06:15:51;;;;;;;14.35;9.35;;;;;;;;;;5047232;28;20047;-81
2022/04/15 06:18:17;;;;;;;13.48;9.23;;;;;;;;;;5046029;28;20165;-81
2022/04/15 06:20:43;;;;;;;12.57;9.05;;;;;;;;;;5016564;28;20099;-81
2022/04/15 06:25:45;;;;;;;14.07;10.13;;;;;;;;;;5138357;22;20298;-80
2022/04/15 06:28:12;;;;;;;13.73;9.70;;;;;;;;;;5016827;28;20048;-81
2022/04/15 06:30:38;;;;;;;14.15;10.63;;;;;;;;;;5044442;28;20132;-81
2022/04/15 06:33:06;;;;;;;11.95;9.60;;;;;;;;;;5059540;28;20046;-81
2022/04/15 06:35:32;;;;;;;11.35;7.85;;;;;;;;;;5038109;28;20045;-81
2022/04/15 06:37:59;;;;;;;9.68;7.10;;;;;;;;;;5060876;28;20047;-81
2022/04/15 06:40:25;;;;;;;11.82;8.48;;;;;;;;;;5043616;28;20411;-82
2022/04/15 06:42:51;;;;;;;11.43;8.25;;;;;;;;;;5051116;28;20667;-81
2022/04/15 06:45:17;;;;;;;11.48;8.63;;;;;;;;;;5046807;28;20045;-81
2022/04/15 06:47:43;;;;;;;13.02;8.18;;;;;;;;;;5049494;28;20029;-81
2022/04/15 06:50:09;;;;;;;11.98;8.18;;;;;;;;;;5061105;28;20059;-82
2022/04/15 06:52:36;;;;;;;13.43;8.70;;;;;;;;;;5065827;28;20045;-81
2022/04/15 06:55:02;;;;;;;13.07;9.05;;;;;;;;;;5066167;28;20109;-81
2022/04/15 06:57:31;;;;;;;12.00;9.68;;;;;;;;;;5063498;28;20402;-81
2022/04/15 06:59:57;;;;;;;14.82;10.20;;;;;;;;;;5061247;28;20100;-81
2022/04/15 07:02:23;;;;;;;14.75;10.45;;;;;;;;;;5046611;28;20040;-81
2022/04/15 07:04:49;;;;;;;12.57;9.73;;;;;;;;;;5046976;28;20041;-81
2022/04/15 07:07:15;;;;;;;12.70;10.50;;;;;;;;;;5045729;28;20540;-81
2022/04/15 07:09:41;;;;;;;16.60;11.25;;;;;;;;;;5061387;28;20041;-79
2022/04/15 07:12:07;;;;;;;16.90;11.63;;;;;;;;;;5061184;28;20044;-81
2022/04/15 07:14:33;;;;;;;16.20;11.10;;;;;;;;;;5063585;28;20406;-80
2022/04/15 07:17:00;;;;;;;16.05;11.50;;;;;;;;;;5046491;28;20563;-80
2022/04/15 07:19:27;;;;;;;15.63;11.90;;;;;;;;;;5058053;28;20469;-82
2022/04/15 07:21:53;;;;;;;19.38;11.38;;;;;;;;;;5061091;28;20402;-82
2022/04/15 07:24:20;;;;;;;17.63;12.10;;;;;;;;;;5062212;28;20060;-82
2022/04/15 07:26:46;;;;;;;18.60;11.95;;;;;;;;;;5063877;28;20052;-81
2022/04/15 07:29:12;;;;;;;23.50;12.00;;;;;;;;;;5061622;28;20090;-82
2022/04/15 07:31:40;;;;;;;18.83;11.38;;;;;;;;;;5061519;28;20052;-81
2022/04/15 07:34:06;;;;;;;16.92;11.80;;;;;;;;;;5061708;28;20059;-82
2022/04/15 07:39:03;;;;;;;17.05;12.20;;;;;;;;;;5064345;28;20109;-82
2022/04/15 07:41:29;;;;;;;19.13;12.73;;;;;;;;;;5045422;28;20073;-82
2022/04/15 07:43:55;;;;;;;20.15;12.73;;;;;;;;;;5064583;28;20045;-83
2022/04/15 07:46:21;;;;;;;17.25;12.93;;;;;;;;;;5069289;28;20079;-81
2022/04/15 07:48:47;;;;;;;18.85;13.68;;;;;;;;;;5066065;28;20045;-81
2022/04/15 07:51:13;;;;;;;47.85;16.08;;;;;;;;;;5067771;28;20045;-82
2022/04/15 07:53:39;;;;;;;22.25;15.38;;;;;;;;;;5064790;28;20057;-83
2022/04/15 07:56:05;;;;;;;23.45;14.88;;;;;;;;;;5066558;28;20053;-81
2022/04/15 07:58:31;;;;;;;25.13;15.02;;;;;;;;;;5065729;28;20071;-82
2022/04/15 08:01:00;;;;;;;23.63;14.40;;;;;;;;;;5066221;28;20462;-81
2022/04/15 08:03:29;;;;;;;23.05;14.88;;;;;;;;;;5066590;28;20510;-81
2022/04/15 08:05:56;;;;;;;23.52;14.98;;;;;;;;;;5069888;28;20124;-81
2022/04/15 08:08:22;;;;;;;26.63;16.42;;;;;;;;;;5064904;28;20041;-81
2022/04/15 08:10:51;;;;;;;25.30;17.30;;;;;;;;;;5062056;28;20392;-82
2022/04/15 08:13:20;;;;;;;26.08;17.52;;;;;;;;;;5061828;28;20098;-82
2022/04/15 08:15:50;;;;;;;23.13;16.30;;;;;;;;;;5069163;28;20467;-82
2022/04/15 08:18:16;;;;;;;26.73;15.30;;;;;;;;;;5066416;28;20053;-81
2022/04/15 08:20:43;;;;;;;21.88;15.25;;;;;;;;;;5068427;28;20045;-84
2022/04/15 08:23:09;;;;;;;21.95;14.35;;;;;;;;;;5050466;28;20111;-83
2022/04/15 08:25:36;;;;;;;22.95;14.32;;;;;;;;;;5048377;28;20103;-79
2022/04/15 08:28:03;;;;;;;18.20;12.20;;;;;;;;;;5066757;28;20045;-82
2022/04/15 08:30:30;;;;;;;20.17;12.13;;;;;;;;;;5066676;28;20040;-82
2022/04/15 08:32:57;;;;;;;21.90;12.15;;;;;;;;;;5065773;28;20060;-82
2022/04/15 08:35:23;;;;;;;24.67;12.00;;;;;;;;;;5069357;28;20406;-82
2022/04/15 08:37:50;;;;;;;23.75;12.50;;;;;;;;;;5066585;28;20505;-82
2022/04/15 08:40:16;;;;;;;17.90;11.73;;;;;;;;;;5064987;28;20499;-80
2022/04/15 08:42:43;;;;;;;20.70;10.05;;;;;;;;;;5065677;28;20041;-81
2022/04/15 08:45:10;;;;;;;14.57;9.15;;;;;;;;;;5063720;28;20045;-81
2022/04/15 08:47:37;;;;;;;16.02;9.25;;;;;;;;;;5049044;28;20482;-82
2022/04/15 08:50:05;;;;;;;15.77;8.93;;;;;;;;;;5063428;28;20108;-82
2022/04/15 08:52:31;;;;;;;14.02;9.25;;;;;;;;;;5057233;28;20104;-83
2022/04/15 08:55:01;;;;;;;14.90;8.30;;;;;;;;;;5067106;28;20044;-82
2022/04/15 08:57:27;;;;;;;12.73;7.85;;;;;;;;;;5066084;28;20100;-82
2022/04/15 08:59:54;;;;;;;13.10;7.10;;;;;;;;;;5069913;28;20449;-81
2022/04/15 09:02:35;;;;;;;11.82;6.70;;;;;;;;;;5067869;28;20102;-81
2022/04/15 09:05:01;;;;;;;13.00;8.05;;;;;;;;;;5059524;28;20048;-82
2022/04/15 09:07:29;;;;;;;15.73;7.43;;;;;;;;;;5060845;28;20041;-82
2022/04/15 09:09:56;;;;;;;15.40;8.00;;;;;;;;;;5046513;28;20045;-82
2022/04/15 09:12:25;;;;;;;13.35;6.13;;;;;;;;;;5054922;28;20556;-82
2022/04/15 09:14:52;;;;;;;11.63;6.35;;;;;;;;;;5028054;28;20077;-81
2022/04/15 09:17:23;;;;;;;11.13;6.90;;;;;;;;;;5057783;28;20041;-81
2022/04/15 09:19:51;;;;;;;10.82;6.35;;;;;;;;;;5063301;28;20041;-81
2022/04/15 09:22:18;;;;;;;15.27;7.22;;;;;;;;;;5064281;28;20069;-81
2022/04/15 09:24:44;;;;;;;11.75;6.53;;;;;;;;;;5061479;28;20053;-81
2022/04/15 09:27:10;;;;;;;13.18;7.25;;;;;;;;;;5064827;28;20051;-82
2022/04/15 09:29:45;;;;;;;11.45;6.78;;;;;;;;;;5064439;28;20115;-82
2022/04/15 09:32:16;;;;;;;12.75;7.20;;;;;;;;;;5063839;28;20135;-82
2022/04/15 09:34:54;;;;;;;13.35;7.15;;;;;;;;;;5060852;28;20041;-82
2022/04/15 09:37:21;;;;;;;11.63;6.95;;;;;;;;;;5062331;28;20098;-82
2022/04/15 09:40:03;;;;;;;14.15;7.38;;;;;;;;;;5063325;28;20045;-82
2022/04/15 09:42:29;;;;;;;13.70;7.00;;;;;;;;;;5062863;28;20045;-82
2022/04/15 09:44:59;;;;;;;14.30;6.90;;;;;;;;;;5062948;28;20411;-82
2022/04/15 09:47:27;;;;;;;12.68;6.82;;;;;;;;;;5062803;28;20070;-82
2022/04/15 09:49:53;;;;;;;11.40;6.80;;;;;;;;;;5056498;28;20041;-82
2022/04/15 09:52:25;;;;;;;19.25;8.13;;;;;;;;;;5059747;28;20068;-82
2022/04/15 09:54:56;;;;;;;12.50;7.10;;;;;;;;;;5054604;28;20045;-83
2022/04/15 09:57:23;;;;;;;15.85;7.78;;;;;;;;;;5062287;28;20049;-82
2022/04/15 09:59:50;;;;;;;14.15;7.10;;;;;;;;;;5061489;28;20044;-83
2022/04/15 10:02:16;;;;;;;13.93;6.78;;;;;;;;;;5055902;28;20144;-82
2022/04/15 10:04:42;;;;;;;15.38;7.00;;;;;;;;;;5059338;28;20064;-83
2022/04/15 10:07:08;;;;;;;12.27;7.10;;;;;;;;;;5060017;28;20486;-81
2022/04/15 10:09:36;;;;;;;13.13;6.72;;;;;;;;;;5060248;28;20106;-81
2022/04/15 10:12:03;;;;;;;9.75;5.90;;;;;;;;;;5055848;28;20483;-82
2022/04/15 10:14:29;;;;;;;12.30;6.70;;;;;;;;;;5053544;28;20041;-81
2022/04/15 10:16:58;;;;;;;13.80;6.53;;;;;;;;;;5044758;28;20142;-81
2022/04/15 10:19:25;;;;;;;11.70;6.53;;;;;;;;;;5063020;28;20064;-81
2022/04/15 10:21:52;;;;;;;13.43;6.90;;;;;;;;;;5053538;28;20094;-82
2022/04/15 10:24:18;;;;;;;11.63;6.85;;;;;;;;;;5062060;28;20052;-82
2022/04/15 10:26:45;;;;;;;11.43;6.93;;;;;;;;;;5045064;28;20044;-82
2022/04/15 10:29:12;;;;;;;13.05;7.03;;;;;;;;;;5063929;28;20120;-82
2022/04/15 10:31:45;;;;;;;12.75;6.80;;;;;;;;;;5064445;28;20052;-82
2022/04/15 10:34:12;;;;;;;12.38;6.45;;;;;;;;;;5060614;28;20080;-81
2022/04/15 10:36:39;;;;;;;14.63;7.22;;;;;;;;;;5060967;28;20043;-81
2022/04/15 10:39:08;;;;;;;15.60;7.32;;;;;;;;;;5059111;28;20483;-82
2022/04/15 10:41:44;;;;;;;11.13;6.07;;;;;;;;;;5058544;28;20077;-81
2022/04/15 10:44:14;;;;;;;12.38;6.47;;;;;;;;;;5060588;28;20049;-82
2022/04/15 10:46:40;;;;;;;13.07;7.28;;;;;;;;;;5062733;28;20090;-81
2022/04/15 10:49:18;;;;;;;12.65;7.75;;;;;;;;;;5061635;28;20059;-82
2022/04/15 10:51:45;;;;;;;18.90;7.20;;;;;;;;;;5060741;28;20051;-81
2022/04/15 10:54:30;;;;;;;12.50;6.60;;;;;;;;;;5042696;28;20440;-81
2022/04/15 10:56:59;;;;;;;14.57;6.97;;;;;;;;;;5062305;28;20051;-81
2022/04/15 11:02:44;;;;;;;14.32;7.15;;;;;;;;;;5050151;28;20049;-81
2022/04/15 11:05:11;;;;;;;14.35;7.75;;;;;;;;;;5062203;28;20467;-81
2022/04/15 11:07:57;;;;;;;10.75;7.35;;;;;;;;;;5063022;28;20122;-82
2022/04/15 11:10:42;;;;;;;14.98;7.60;;;;;;;;;;5062134;28;20045;-81
2022/04/15 11:13:09;;;;;;;12.63;6.63;;;;;;;;;;5061067;28;20053;-81
2022/04/15 11:15:52;;;;;;;12.00;7.38;;;;;;;;;;5039409;28;20047;-81
2022/04/15 11:18:18;;;;;;;12.88;8.30;;;;;;;;;;5062280;28;20136;-81
2022/04/15 11:20:44;;;;;;;10.77;7.82;;;;;;;;;;5038724;28;20065;-81
2022/04/15 11:23:10;;;;;;;13.93;9.00;;;;;;;;;;5063364;28;20037;-81
2022/04/15 11:25:46;;;;;;;13.73;8.60;;;;;;;;;;5065567;28;20057;-81
2022/04/15 11:28:12;;;;;;;13.60;8.48;;;;;;;;;;5064953;28;20033;-81
2022/04/15 11:30:38;;;;;;;13.88;7.50;;;;;;;;;;5062724;28;20049;-81
2022/04/15 11:33:05;;;;;;;13.82;8.20;;;;;;;;;;5075929;28;20081;-82
2022/04/15 11:35:32;;;;;;;14.55;7.70;;;;;;;;;;5075566;28;20056;-80
2022/04/15 11:38:15;;;;;;;14.70;7.78;;;;;;;;;;5063150;28;20498;-81
2022/04/15 11:40:43;;;;;;;11.63;7.35;;;;;;;;;;5061967;28;20048;-82
2022/04/15 11:43:12;;;;;;;13.50;7.65;;;;;;;;;;5062512;28;20044;-81
2022/04/15 11:45:39;;;;;;;14.30;7.40;;;;;;;;;;5063107;28;20406;-81
2022/04/15 11:48:18;;;;;;;13.77;7.63;;;;;;;;;;5064493;28;20048;-81
2022/04/15 11:50:45;;;;;;;13.35;7.53;;;;;;;;;;5063297;28;20037;-81
2022/04/15 11:53:12;;;;;;;13.70;8.23;;;;;;;;;;5047381;28;20130;-81
2022/04/15 11:55:47;;;;;;;12.35;6.60;;;;;;;;;;5060599;28;20048;-81
2022/04/15 11:58:13;;;;;;;13.57;7.30;;;;;;;;;;5064448;28;20053;-81
2022/04/15 12:00:39;;;;;;;13.32;7.85;;;;;;;;;;5065019;28;20056;-81
2022/04/15 12:03:06;;;;;;;14.63;7.70;;;;;;;;;;5065375;28;20502;-81
2022/04/15 12:05:32;;;;;;;11.52;7.10;;;;;;;;;;5064859;28;20068;-81
2022/04/15 12:07:59;;;;;;;12.25;7.20;;;;;;;;;;5068276;28;20049;-81
2022/04/15 12:10:25;;;;;;;13.68;6.45;;;;;;;;;;5076808;28;20043;-80
2022/04/15 12:12:52;;;;;;;12.95;7.15;;;;;;;;;;5082877;28;20080;-80
2022/04/15 12:15:24;;;;;;;12.23;7.25;;;;;;;;;;5063557;28;20037;-81
2022/04/15 12:17:52;;;;;;;14.95;7.65;;;;;;;;;;5065769;28;20106;-80
2022/04/15 12:20:18;;;;;;;13.77;7.65;;;;;;;;;;5065521;28;20045;-80
2022/04/15 12:22:44;;;;;;;13.02;7.85;;;;;;;;;;5048194;28;20037;-81
2022/04/15 12:25:18;;;;;;;14.45;8.18;;;;;;;;;;5068241;28;20056;-81
2022/04/15 12:27:48;;;;;;;11.25;7.72;;;;;;;;;;5069348;28;20068;-82
2022/04/15 12:30:14;;;;;;;11.32;7.55;;;;;;;;;;5072189;28;20486;-82
2022/04/15 12:32:42;;;;;;;13.25;7.93;;;;;;;;;;5071503;28;20041;-82
2022/04/15 12:35:11;;;;;;;15.85;7.80;;;;;;;;;;5067733;28;20041;-81
2022/04/15 12:37:39;;;;;;;12.40;7.40;;;;;;;;;;5063587;28;20092;-82
2022/04/15 12:40:05;;;;;;;14.00;7.50;;;;;;;;;;5066610;28;20479;-82
2022/04/15 12:42:32;;;;;;;13.38;7.18;;;;;;;;;;5049114;28;20051;-81
2022/04/15 12:45:00;;;;;;;15.15;7.65;;;;;;;;;;5064918;28;20479;-82
2022/04/15 12:47:26;;;;;;;14.27;8.35;;;;;;;;;;5063817;28;20068;-81
2022/04/15 12:49:52;;;;;;;16.42;8.32;;;;;;;;;;5047699;28;20053;-80
2022/04/15 12:52:19;;;;;;;15.55;8.48;;;;;;;;;;5063511;28;20048;-80
2022/04/15 12:55:15;;;;;;;15.85;8.10;;;;;;;;;;5069961;28;20056;-81
2022/04/15 12:57:41;;;;;;;13.80;8.65;;;;;;;;;;5040673;28;20108;-81
2022/04/15 13:00:12;;;;;;;16.35;8.52;;;;;;;;;;5035147;28;20064;-82
2022/04/15 13:02:38;;;;;;;15.57;9.03;;;;;;;;;;5051121;28;20037;-80
2022/04/15 13:05:06;;;;;;;15.68;9.43;;;;;;;;;;5061878;28;20374;-81
2022/04/15 13:07:32;;;;;;;13.48;9.02;;;;;;;;;;5039892;28;20064;-79
2022/04/15 13:09:58;;;;;;;12.45;9.02;;;;;;;;;;5051590;28;20076;-80
2022/04/15 13:12:24;;;;;;;12.30;8.55;;;;;;;;;;5057619;28;20037;-82
2022/04/15 13:14:52;;;;;;;13.68;8.75;;;;;;;;;;5045874;28;20037;-81
2022/04/15 13:17:19;;;;;;;13.48;7.95;;;;;;;;;;5061871;28;20538;-81
2022/04/15 13:19:45;;;;;;;13.02;8.20;;;;;;;;;;5075666;28;20123;-81
2022/04/15 13:22:12;;;;;;;11.32;7.93;;;;;;;;;;5062171;28;20041;-81
2022/04/15 13:24:39;;;;;;;10.23;8.15;;;;;;;;;;5063072;28;20100;-80
2022/04/15 13:27:05;;;;;;;12.32;8.65;;;;;;;;;;5060870;28;20922;-81
2022/04/15 13:29:32;;;;;;;11.68;8.13;;;;;;;;;;5061837;28;20068;-81
2022/04/15 13:31:58;;;;;;;12.30;7.50;;;;;;;;;;5045182;28;20075;-81
2022/04/15 13:34:24;;;;;;;10.57;7.63;;;;;;;;;;5062586;28;20418;-81
2022/04/15 13:36:51;;;;;;;11.55;7.82;;;;;;;;;;5064845;28;20037;-79
2022/04/15 13:39:17;;;;;;;12.20;8.18;;;;;;;;;;5064279;28;20048;-82
2022/04/15 13:41:43;;;;;;;14.55;8.63;;;;;;;;;;5045659;28;20044;-81
2022/04/15 13:44:12;;;;;;;13.93;8.15;;;;;;;;;;5046411;28;20513;-81
2022/04/15 13:46:38;;;;;;;13.25;8.07;;;;;;;;;;5064329;28;20041;-81
2022/04/15 13:49:04;;;;;;;13.45;7.90;;;;;;;;;;5064796;28;20064;-80
2022/04/15 13:51:32;;;;;;;13.98;8.57;;;;;;;;;;5059421;28;20067;-81
2022/04/15 13:56:43;;;;;;;14.95;8.98;;;;;;;;;;5065504;28;20041;-80
2022/04/15 13:59:10;;;;;;;16.45;9.45;;;;;;;;;;5064536;28;20059;-81
2022/04/15 14:01:39;;;;;;;15.23;9.50;;;;;;;;;;5060101;28;20505;-81
2022/04/15 14:04:10;;;;;;;15.35;9.00;;;;;;;;;;5058431;28;20567;-80
2022/04/15 14:06:40;;;;;;;14.93;8.80;;;;;;;;;;5044562;28;20040;-81
2022/04/15 14:09:07;;;;;;;14.77;8.48;;;;;;;;;;5045018;28;20049;-81
2022/04/15 14:11:35;;;;;;;13.68;9.43;;;;;;;;;;5055943;28;20043;-80
2022/04/15 14:14:02;;;;;;;15.60;8.50;;;;;;;;;;5045399;28;20060;-80
2022/04/15 14:16:28;;;;;;;11.85;8.30;;;;;;;;;;5063113;28;20037;-81
2022/04/15 14:18:54;;;;;;;13.32;8.77;;;;;;;;;;5068410;28;20043;-81
2022/04/15 14:21:21;;;;;;;11.85;7.63;;;;;;;;;;5065443;28;20120;-81
2022/04/15 14:23:47;;;;;;;18.48;8.93;;;;;;;;;;5048969;28;20068;-80
2022/04/15 14:26:13;;;;;;;13.93;9.27;;;;;;;;;;5060006;28;20132;-80
2022/04/15 14:28:39;;;;;;;16.17;9.07;;;;;;;;;;5062458;28;20131;-81
2022/04/15 14:31:06;;;;;;;15.35;9.10;;;;;;;;;;5061349;28;20049;-82
2022/04/15 14:33:33;;;;;;;13.68;8.30;;;;;;;;;;5042692;28;20045;-82
2022/04/15 14:36:00;;;;;;;15.23;8.02;;;;;;;;;;5059198;28;20041;-81
2022/04/15 14:38:27;;;;;;;14.45;8.57;;;;;;;;;;5061525;28;20037;-80
2022/04/15 14:40:53;;;;;;;15.57;8.68;;;;;;;;;;5062203;28;20049;-80